sensor_id;sensor_type;location;lat;lon;timestamp;temperature;humidity
1329;DHT22;658;48.820;9.354;2023-08-24T00:00:29;24.50;67.30
1329;DHT22;658;48.820;9.354;2023-08-24T00:04:30;24.40;67.70
1329;DHT22;658;48.820;9.354;2023-08-24T00:08:30;24.40;67.80
1329;DHT22;658;48.820;9.354;2023-08-24T00:12:33;24.40;67.90
1329;DHT22;658;48.820;9.354;2023-08-24T00:16:33;24.30;68.10
1329;DHT22;658;48.820;9.354;2023-08-24T00:20:34;24.30;68.40
1329;DHT22;658;48.820;9.354;2023-08-24T00:24:37;24.30;68.30
1329;DHT22;658;48.820;9.354;2023-08-24T00:28:38;24.30;68.40
1329;DHT22;658;48.820;9.354;2023-08-24T00:32:38;24.30;68.50
1329;DHT22;658;48.820;9.354;2023-08-24T00:36:39;24.20;68.50
1329;DHT22;658;48.820;9.354;2023-08-24T00:40:42;24.20;68.60
1329;DHT22;658;48.820;9.354;2023-08-24T00:44:42;24.20;68.30
1329;DHT22;658;48.820;9.354;2023-08-24T00:48:45;24.10;69.00
1329;DHT22;658;48.820;9.354;2023-08-24T00:52:47;24.10;68.40
1329;DHT22;658;48.820;9.354;2023-08-24T00:56:49;24.00;68.60
1329;DHT22;658;48.820;9.354;2023-08-24T01:00:55;24.00;68.80
1329;DHT22;658;48.820;9.354;2023-08-24T01:04:59;24.00;68.90
1329;DHT22;658;48.820;9.354;2023-08-24T01:08:59;24.10;68.90
1329;DHT22;658;48.820;9.354;2023-08-24T01:13:07;24.10;68.50
1329;DHT22;658;48.820;9.354;2023-08-24T01:17:10;24.00;68.30
1329;DHT22;658;48.820;9.354;2023-08-24T01:21:14;24.00;68.40
1329;DHT22;658;48.820;9.354;2023-08-24T01:25:23;24.00;68.60
1329;DHT22;658;48.820;9.354;2023-08-24T01:29:25;24.00;68.70
1329;DHT22;658;48.820;9.354;2023-08-24T01:33:26;23.90;69.40
1329;DHT22;658;48.820;9.354;2023-08-24T01:37:26;23.90;69.00
1329;DHT22;658;48.820;9.354;2023-08-24T01:41:33;23.90;69.00
1329;DHT22;658;48.820;9.354;2023-08-24T01:45:38;23.90;69.00
1329;DHT22;658;48.820;9.354;2023-08-24T01:49:40;23.80;69.00
1329;DHT22;658;48.820;9.354;2023-08-24T01:53:42;23.80;69.20
1329;DHT22;658;48.820;9.354;2023-08-24T01:57:43;23.80;69.60
1329;DHT22;658;48.820;9.354;2023-08-24T02:01:43;23.70;69.90
1329;DHT22;658;48.820;9.354;2023-08-24T02:05:46;23.70;70.10
1329;DHT22;658;48.820;9.354;2023-08-24T02:09:47;23.70;70.20
1329;DHT22;658;48.820;9.354;2023-08-24T02:13:49;23.60;70.20
1329;DHT22;658;48.820;9.354;2023-08-24T02:17:50;23.60;70.20
1329;DHT22;658;48.820;9.354;2023-08-24T02:21:51;23.60;70.30
1329;DHT22;658;48.820;9.354;2023-08-24T02:25:51;23.60;70.50
1329;DHT22;658;48.820;9.354;2023-08-24T02:29:52;23.60;70.20
1329;DHT22;658;48.820;9.354;2023-08-24T02:33:55;23.60;69.90
1329;DHT22;658;48.820;9.354;2023-08-24T02:37:55;23.60;69.70
1329;DHT22;658;48.820;9.354;2023-08-24T02:41:58;23.60;69.50
1329;DHT22;658;48.820;9.354;2023-08-24T02:46:03;23.60;69.50
1329;DHT22;658;48.820;9.354;2023-08-24T02:50:05;23.50;69.30
1329;DHT22;658;48.820;9.354;2023-08-24T02:54:08;23.50;69.40
1329;DHT22;658;48.820;9.354;2023-08-24T02:58:08;23.50;69.50
1329;DHT22;658;48.820;9.354;2023-08-24T03:02:11;23.50;69.60
1329;DHT22;658;48.820;9.354;2023-08-24T03:06:12;23.50;70.00
1329;DHT22;658;48.820;9.354;2023-08-24T03:10:13;23.40;70.10
1329;DHT22;658;48.820;9.354;2023-08-24T03:14:13;23.40;70.40
1329;DHT22;658;48.820;9.354;2023-08-24T03:18:15;23.30;70.40
1329;DHT22;658;48.820;9.354;2023-08-24T03:22:16;23.30;70.40
1329;DHT22;658;48.820;9.354;2023-08-24T03:26:19;23.40;70.30
1329;DHT22;658;48.820;9.354;2023-08-24T03:30:20;23.40;70.20
1329;DHT22;658;48.820;9.354;2023-08-24T03:34:23;23.30;70.10
1329;DHT22;658;48.820;9.354;2023-08-24T03:38:23;23.30;70.30
1329;DHT22;658;48.820;9.354;2023-08-24T03:42:24;23.30;70.50
1329;DHT22;658;48.820;9.354;2023-08-24T03:46:24;23.30;70.90
1329;DHT22;658;48.820;9.354;2023-08-24T03:50:27;23.30;71.00
1329;DHT22;658;48.820;9.354;2023-08-24T03:54:28;23.30;71.20
1329;DHT22;658;48.820;9.354;2023-08-24T03:58:31;23.40;71.20
1329;DHT22;658;48.820;9.354;2023-08-24T04:02:31;23.40;70.90
1329;DHT22;658;48.820;9.354;2023-08-24T04:06:32;23.40;70.80
1329;DHT22;658;48.820;9.354;2023-08-24T04:10:37;23.40;70.90
1329;DHT22;658;48.820;9.354;2023-08-24T04:14:38;23.40;71.10
1329;DHT22;658;48.820;9.354;2023-08-24T04:18:38;23.30;71.40
1329;DHT22;658;48.820;9.354;2023-08-24T04:22:43;23.40;71.80
1329;DHT22;658;48.820;9.354;2023-08-24T04:26:43;23.30;71.80
1329;DHT22;658;48.820;9.354;2023-08-24T04:30:54;23.40;71.90
1329;DHT22;658;48.820;9.354;2023-08-24T04:34:54;23.30;71.90
1329;DHT22;658;48.820;9.354;2023-08-24T04:38:55;23.40;72.10
1329;DHT22;658;48.820;9.354;2023-08-24T04:42:56;23.40;72.20
1329;DHT22;658;48.820;9.354;2023-08-24T04:46:56;23.40;72.30
1329;DHT22;658;48.820;9.354;2023-08-24T04:50:57;23.40;72.60
1329;DHT22;658;48.820;9.354;2023-08-24T04:54:57;23.40;72.60
1329;DHT22;658;48.820;9.354;2023-08-24T04:59:00;23.30;72.60
1329;DHT22;658;48.820;9.354;2023-08-24T05:03:06;23.30;72.90
1329;DHT22;658;48.820;9.354;2023-08-24T05:07:06;23.40;73.10
1329;DHT22;658;48.820;9.354;2023-08-24T05:11:17;23.30;73.00
1329;DHT22;658;48.820;9.354;2023-08-24T05:15:18;23.30;73.10
1329;DHT22;658;48.820;9.354;2023-08-24T05:19:18;23.30;73.10
1329;DHT22;658;48.820;9.354;2023-08-24T05:23:19;23.30;73.10
1329;DHT22;658;48.820;9.354;2023-08-24T05:27:20;23.30;73.00
1329;DHT22;658;48.820;9.354;2023-08-24T05:31:20;23.30;73.10
1329;DHT22;658;48.820;9.354;2023-08-24T05:35:21;23.30;73.20
1329;DHT22;658;48.820;9.354;2023-08-24T05:39:23;23.40;73.60
1329;DHT22;658;48.820;9.354;2023-08-24T05:43:23;23.40;73.80
1329;DHT22;658;48.820;9.354;2023-08-24T05:47:26;23.50;73.90
1329;DHT22;658;48.820;9.354;2023-08-24T05:51:29;23.60;73.90
1329;DHT22;658;48.820;9.354;2023-08-24T05:55:29;23.60;73.30
1329;DHT22;658;48.820;9.354;2023-08-24T05:59:31;23.70;73.60
1329;DHT22;658;48.820;9.354;2023-08-24T06:03:34;23.70;73.50
1329;DHT22;658;48.820;9.354;2023-08-24T06:07:35;23.70;73.70
1329;DHT22;658;48.820;9.354;2023-08-24T06:11:36;23.70;73.20
1329;DHT22;658;48.820;9.354;2023-08-24T06:15:39;23.80;72.30
1329;DHT22;658;48.820;9.354;2023-08-24T06:19:39;23.80;72.60
1329;DHT22;658;48.820;9.354;2023-08-24T06:23:40;23.90;72.10
1329;DHT22;658;48.820;9.354;2023-08-24T06:27:41;23.90;71.70
1329;DHT22;658;48.820;9.354;2023-08-24T06:31:42;23.90;70.80
1329;DHT22;658;48.820;9.354;2023-08-24T06:35:42;23.90;71.50
1329;DHT22;658;48.820;9.354;2023-08-24T06:39:43;23.90;71.40
1329;DHT22;658;48.820;9.354;2023-08-24T06:43:43;24.00;71.10
1329;DHT22;658;48.820;9.354;2023-08-24T06:47:44;23.90;71.10
1329;DHT22;658;48.820;9.354;2023-08-24T06:51:45;23.90;70.60
1329;DHT22;658;48.820;9.354;2023-08-24T06:55:45;23.80;70.60
1329;DHT22;658;48.820;9.354;2023-08-24T06:59:46;23.70;72.00
1329;DHT22;658;48.820;9.354;2023-08-24T07:03:47;23.60;72.60
1329;DHT22;658;48.820;9.354;2023-08-24T07:07:50;23.60;73.40
1329;DHT22;658;48.820;9.354;2023-08-24T07:11:50;23.50;74.20
1329;DHT22;658;48.820;9.354;2023-08-24T07:15:51;23.40;74.10
1329;DHT22;658;48.820;9.354;2023-08-24T07:19:55;23.50;74.40
1329;DHT22;658;48.820;9.354;2023-08-24T07:23:56;23.60;73.80
1329;DHT22;658;48.820;9.354;2023-08-24T07:27:57;23.60;73.10
1329;DHT22;658;48.820;9.354;2023-08-24T07:32:03;23.80;73.20
1329;DHT22;658;48.820;9.354;2023-08-24T07:36:04;23.90;72.50
1329;DHT22;658;48.820;9.354;2023-08-24T07:40:07;24.00;72.20
1329;DHT22;658;48.820;9.354;2023-08-24T07:44:09;24.10;71.70
1329;DHT22;658;48.820;9.354;2023-08-24T07:48:10;24.20;71.90
1329;DHT22;658;48.820;9.354;2023-08-24T07:52:13;24.30;71.20
1329;DHT22;658;48.820;9.354;2023-08-24T07:56:14;24.40;70.90
1329;DHT22;658;48.820;9.354;2023-08-24T08:00:15;24.40;70.60
1329;DHT22;658;48.820;9.354;2023-08-24T08:04:15;24.50;70.50
1329;DHT22;658;48.820;9.354;2023-08-24T08:08:16;24.50;70.30
1329;DHT22;658;48.820;9.354;2023-08-24T08:12:17;24.60;70.10
1329;DHT22;658;48.820;9.354;2023-08-24T08:16:17;24.70;69.90
1329;DHT22;658;48.820;9.354;2023-08-24T08:20:20;24.70;69.50
1329;DHT22;658;48.820;9.354;2023-08-24T08:24:21;24.80;69.70
1329;DHT22;658;48.820;9.354;2023-08-24T08:28:21;24.80;69.30
1329;DHT22;658;48.820;9.354;2023-08-24T08:32:24;24.90;69.40
1329;DHT22;658;48.820;9.354;2023-08-24T08:36:27;24.90;69.30
1329;DHT22;658;48.820;9.354;2023-08-24T08:40:30;25.00;69.00
1329;DHT22;658;48.820;9.354;2023-08-24T08:44:31;25.10;68.30
1329;DHT22;658;48.820;9.354;2023-08-24T08:48:32;25.20;68.10
1329;DHT22;658;48.820;9.354;2023-08-24T08:52:34;25.30;67.90
1329;DHT22;658;48.820;9.354;2023-08-24T08:56:35;25.40;67.20
1329;DHT22;658;48.820;9.354;2023-08-24T09:00:36;25.40;67.10
1329;DHT22;658;48.820;9.354;2023-08-24T09:04:37;25.50;66.90
1329;DHT22;658;48.820;9.354;2023-08-24T09:08:39;25.60;66.20
1329;DHT22;658;48.820;9.354;2023-08-24T09:12:39;25.70;66.40
1329;DHT22;658;48.820;9.354;2023-08-24T09:16:41;25.70;66.30
1329;DHT22;658;48.820;9.354;2023-08-24T09:20:42;25.80;66.30
1329;DHT22;658;48.820;9.354;2023-08-24T09:24:48;25.90;66.50
1329;DHT22;658;48.820;9.354;2023-08-24T09:28:53;26.00;65.80
1329;DHT22;658;48.820;9.354;2023-08-24T09:32:53;26.00;66.00
1329;DHT22;658;48.820;9.354;2023-08-24T09:36:54;26.10;66.00
1329;DHT22;658;48.820;9.354;2023-08-24T09:40:57;26.20;65.90
1329;DHT22;658;48.820;9.354;2023-08-24T09:45:03;26.30;65.90
1329;DHT22;658;48.820;9.354;2023-08-24T09:49:06;26.40;65.30
1329;DHT22;658;48.820;9.354;2023-08-24T09:53:18;26.50;65.20
1329;DHT22;658;48.820;9.354;2023-08-24T09:57:21;26.50;66.00
1329;DHT22;658;48.820;9.354;2023-08-24T10:01:24;26.60;65.00
1329;DHT22;658;48.820;9.354;2023-08-24T10:05:26;26.60;65.60
1329;DHT22;658;48.820;9.354;2023-08-24T10:09:33;26.60;64.50
1329;DHT22;658;48.820;9.354;2023-08-24T10:14:09;26.70;64.60
1329;DHT22;658;48.820;9.354;2023-08-24T10:18:11;26.70;64.70
1329;DHT22;658;48.820;9.354;2023-08-24T10:22:12;26.70;64.30
1329;DHT22;658;48.820;9.354;2023-08-24T10:26:13;26.70;64.00
1329;DHT22;658;48.820;9.354;2023-08-24T10:30:14;26.70;64.10
1329;DHT22;658;48.820;9.354;2023-08-24T10:34:16;26.80;64.00
1329;DHT22;658;48.820;9.354;2023-08-24T10:38:28;26.80;64.00
1329;DHT22;658;48.820;9.354;2023-08-24T10:42:46;26.80;64.10
1329;DHT22;658;48.820;9.354;2023-08-24T10:47:12;26.90;64.00
1329;DHT22;658;48.820;9.354;2023-08-24T10:55:27;26.90;63.70
1329;DHT22;658;48.820;9.354;2023-08-24T10:59:34;26.90;63.70
1329;DHT22;658;48.820;9.354;2023-08-24T11:03:35;27.00;63.50
1329;DHT22;658;48.820;9.354;2023-08-24T11:07:48;27.00;63.60
1329;DHT22;658;48.820;9.354;2023-08-24T11:11:59;27.00;63.70
1329;DHT22;658;48.820;9.354;2023-08-24T11:16:01;27.00;63.60
1329;DHT22;658;48.820;9.354;2023-08-24T11:20:07;27.00;63.80
1329;DHT22;658;48.820;9.354;2023-08-24T11:24:09;27.10;63.60
1329;DHT22;658;48.820;9.354;2023-08-24T11:28:17;27.10;63.80
1329;DHT22;658;48.820;9.354;2023-08-24T11:32:19;27.20;63.70
1329;DHT22;658;48.820;9.354;2023-08-24T11:36:19;27.20;63.70
1329;DHT22;658;48.820;9.354;2023-08-24T11:40:22;27.20;63.80
1329;DHT22;658;48.820;9.354;2023-08-24T11:44:27;27.20;63.50
1329;DHT22;658;48.820;9.354;2023-08-24T11:48:29;27.20;63.50
1329;DHT22;658;48.820;9.354;2023-08-24T11:52:32;27.30;63.70
1329;DHT22;658;48.820;9.354;2023-08-24T11:56:42;27.20;63.60
1329;DHT22;658;48.820;9.354;2023-08-24T12:00:43;27.20;63.60
1329;DHT22;658;48.820;9.354;2023-08-24T12:04:48;27.20;64.00
1329;DHT22;658;48.820;9.354;2023-08-24T12:08:49;27.30;63.70
1329;DHT22;658;48.820;9.354;2023-08-24T12:13:02;27.30;63.60
1329;DHT22;658;48.820;9.354;2023-08-24T12:17:07;27.30;63.60
1329;DHT22;658;48.820;9.354;2023-08-24T12:21:08;27.30;63.60
1329;DHT22;658;48.820;9.354;2023-08-24T12:25:08;27.40;63.90
1329;DHT22;658;48.820;9.354;2023-08-24T12:29:09;27.40;63.80
1329;DHT22;658;48.820;9.354;2023-08-24T12:33:24;27.40;64.10
1329;DHT22;658;48.820;9.354;2023-08-24T12:37:27;27.40;64.10
1329;DHT22;658;48.820;9.354;2023-08-24T12:41:28;27.40;63.90
1329;DHT22;658;48.820;9.354;2023-08-24T12:45:29;27.50;64.00
1329;DHT22;658;48.820;9.354;2023-08-24T12:49:29;27.50;64.10
1329;DHT22;658;48.820;9.354;2023-08-24T12:53:30;27.50;64.20
1329;DHT22;658;48.820;9.354;2023-08-24T12:57:30;27.50;64.30
1329;DHT22;658;48.820;9.354;2023-08-24T13:01:31;27.50;64.60
1329;DHT22;658;48.820;9.354;2023-08-24T13:05:31;27.50;64.40
1329;DHT22;658;48.820;9.354;2023-08-24T13:09:32;27.50;64.10
1329;DHT22;658;48.820;9.354;2023-08-24T13:13:33;27.50;64.20
1329;DHT22;658;48.820;9.354;2023-08-24T13:17:33;27.50;64.20
1329;DHT22;658;48.820;9.354;2023-08-24T13:21:34;27.60;64.30
1329;DHT22;658;48.820;9.354;2023-08-24T13:25:34;27.60;64.30
1329;DHT22;658;48.820;9.354;2023-08-24T13:29:36;27.60;64.30
1329;DHT22;658;48.820;9.354;2023-08-24T13:33:36;27.60;64.30
1329;DHT22;658;48.820;9.354;2023-08-24T13:37:37;27.60;64.30
1329;DHT22;658;48.820;9.354;2023-08-24T13:41:37;27.60;64.30
1329;DHT22;658;48.820;9.354;2023-08-24T13:45:38;27.70;64.40
1329;DHT22;658;48.820;9.354;2023-08-24T13:49:39;27.70;64.70
1329;DHT22;658;48.820;9.354;2023-08-24T13:53:39;27.60;64.80
1329;DHT22;658;48.820;9.354;2023-08-24T13:57:41;27.70;64.80
1329;DHT22;658;48.820;9.354;2023-08-24T14:01:42;27.70;64.70
1329;DHT22;658;48.820;9.354;2023-08-24T14:05:43;27.70;64.80
1329;DHT22;658;48.820;9.354;2023-08-24T14:09:49;27.70;64.70
1329;DHT22;658;48.820;9.354;2023-08-24T14:13:53;27.70;64.90
1329;DHT22;658;48.820;9.354;2023-08-24T14:17:53;27.60;64.80
1329;DHT22;658;48.820;9.354;2023-08-24T14:21:54;27.70;64.90
1329;DHT22;658;48.820;9.354;2023-08-24T14:25:58;27.70;65.00
1329;DHT22;658;48.820;9.354;2023-08-24T14:29:59;27.70;64.90
1329;DHT22;658;48.820;9.354;2023-08-24T14:33:59;27.70;65.10
1329;DHT22;658;48.820;9.354;2023-08-24T14:38:00;27.70;64.70
1329;DHT22;658;48.820;9.354;2023-08-24T14:42:01;27.70;65.50
1329;DHT22;658;48.820;9.354;2023-08-24T14:46:03;27.80;64.90
1329;DHT22;658;48.820;9.354;2023-08-24T14:50:04;27.80;65.20
1329;DHT22;658;48.820;9.354;2023-08-24T14:54:05;27.80;64.90
1329;DHT22;658;48.820;9.354;2023-08-24T14:58:08;27.80;64.80
1329;DHT22;658;48.820;9.354;2023-08-24T15:02:08;27.90;65.40
1329;DHT22;658;48.820;9.354;2023-08-24T15:06:09;27.90;64.80
1329;DHT22;658;48.820;9.354;2023-08-24T15:10:09;27.90;65.20
1329;DHT22;658;48.820;9.354;2023-08-24T15:14:10;27.90;66.40
1329;DHT22;658;48.820;9.354;2023-08-24T15:18:11;27.90;65.40
1329;DHT22;658;48.820;9.354;2023-08-24T15:22:14;27.90;66.50
1329;DHT22;658;48.820;9.354;2023-08-24T15:26:14;27.90;65.70
1329;DHT22;658;48.820;9.354;2023-08-24T15:30:15;27.90;65.50
1329;DHT22;658;48.820;9.354;2023-08-24T15:34:15;27.90;65.80
1329;DHT22;658;48.820;9.354;2023-08-24T15:38:16;27.90;65.50
1329;DHT22;658;48.820;9.354;2023-08-24T15:42:17;27.80;65.40
1329;DHT22;658;48.820;9.354;2023-08-24T15:46:19;27.90;65.60
1329;DHT22;658;48.820;9.354;2023-08-24T15:50:21;27.80;65.60
1329;DHT22;658;48.820;9.354;2023-08-24T15:54:25;27.80;65.70
1329;DHT22;658;48.820;9.354;2023-08-24T15:58:26;27.80;65.70
1329;DHT22;658;48.820;9.354;2023-08-24T16:02:27;27.80;65.60
1329;DHT22;658;48.820;9.354;2023-08-24T16:06:28;27.80;65.20
1329;DHT22;658;48.820;9.354;2023-08-24T16:10:31;27.80;65.30
1329;DHT22;658;48.820;9.354;2023-08-24T16:14:32;27.80;65.20
1329;DHT22;658;48.820;9.354;2023-08-24T16:18:33;27.80;66.10
1329;DHT22;658;48.820;9.354;2023-08-24T16:22:35;27.80;66.80
1329;DHT22;658;48.820;9.354;2023-08-24T16:26:38;27.80;67.60
1329;DHT22;658;48.820;9.354;2023-08-24T16:30:45;27.80;68.20
1329;DHT22;658;48.820;9.354;2023-08-24T16:34:46;27.80;66.20
1329;DHT22;658;48.820;9.354;2023-08-24T16:38:47;27.90;66.00
1329;DHT22;658;48.820;9.354;2023-08-24T16:42:47;27.90;66.20
1329;DHT22;658;48.820;9.354;2023-08-24T16:46:48;27.90;65.90
1329;DHT22;658;48.820;9.354;2023-08-24T16:50:52;27.80;65.60
1329;DHT22;658;48.820;9.354;2023-08-24T16:54:52;27.90;65.60
1329;DHT22;658;48.820;9.354;2023-08-24T16:58:53;27.80;65.70
1329;DHT22;658;48.820;9.354;2023-08-24T17:02:54;27.80;65.40
1329;DHT22;658;48.820;9.354;2023-08-24T17:06:58;27.80;65.20
1329;DHT22;658;48.820;9.354;2023-08-24T17:10:58;27.70;64.70
1329;DHT22;658;48.820;9.354;2023-08-24T17:14:59;27.70;64.50
1329;DHT22;658;48.820;9.354;2023-08-24T17:18:59;27.70;64.50
1329;DHT22;658;48.820;9.354;2023-08-24T17:23:01;27.60;64.50
1329;DHT22;658;48.820;9.354;2023-08-24T17:27:01;27.50;64.40
1329;DHT22;658;48.820;9.354;2023-08-24T17:31:03;27.50;64.30
1329;DHT22;658;48.820;9.354;2023-08-24T17:35:05;27.50;64.60
1329;DHT22;658;48.820;9.354;2023-08-24T17:39:05;27.40;64.80
1329;DHT22;658;48.820;9.354;2023-08-24T17:43:09;27.40;65.30
1329;DHT22;658;48.820;9.354;2023-08-24T17:47:11;27.40;65.60
1329;DHT22;658;48.820;9.354;2023-08-24T17:51:12;27.40;65.50
1329;DHT22;658;48.820;9.354;2023-08-24T17:55:12;27.40;65.80
1329;DHT22;658;48.820;9.354;2023-08-24T17:59:13;27.40;66.10
1329;DHT22;658;48.820;9.354;2023-08-24T18:03:14;27.30;66.20
1329;DHT22;658;48.820;9.354;2023-08-24T18:07:16;27.30;66.50
1329;DHT22;658;48.820;9.354;2023-08-24T18:11:17;27.30;68.10
1329;DHT22;658;48.820;9.354;2023-08-24T18:15:20;27.30;67.00
1329;DHT22;658;48.820;9.354;2023-08-24T18:19:26;27.30;67.30
1329;DHT22;658;48.820;9.354;2023-08-24T18:23:29;27.30;69.30
1329;DHT22;658;48.820;9.354;2023-08-24T18:27:29;27.30;69.20
1329;DHT22;658;48.820;9.354;2023-08-24T18:31:31;27.30;69.10
1329;DHT22;658;48.820;9.354;2023-08-24T18:35:34;27.30;68.90
1329;DHT22;658;48.820;9.354;2023-08-24T18:39:34;27.30;69.10
1329;DHT22;658;48.820;9.354;2023-08-24T18:43:36;27.20;68.60
1329;DHT22;658;48.820;9.354;2023-08-24T18:47:39;27.30;69.00
1329;DHT22;658;48.820;9.354;2023-08-24T18:51:40;27.20;68.90
1329;DHT22;658;48.820;9.354;2023-08-24T18:55:40;27.20;69.60
1329;DHT22;658;48.820;9.354;2023-08-24T18:59:43;27.10;69.90
1329;DHT22;658;48.820;9.354;2023-08-24T19:03:44;27.10;70.30
1329;DHT22;658;48.820;9.354;2023-08-24T19:07:45;27.10;70.40
1329;DHT22;658;48.820;9.354;2023-08-24T19:11:45;27.10;70.70
1329;DHT22;658;48.820;9.354;2023-08-24T19:15:50;27.00;71.30
1329;DHT22;658;48.820;9.354;2023-08-24T19:19:51;27.10;72.10
1329;DHT22;658;48.820;9.354;2023-08-24T19:23:52;27.10;73.00
1329;DHT22;658;48.820;9.354;2023-08-24T19:27:52;27.00;74.20
1329;DHT22;658;48.820;9.354;2023-08-24T19:31:53;27.00;73.90
1329;DHT22;658;48.820;9.354;2023-08-24T19:35:55;27.00;73.10
1329;DHT22;658;48.820;9.354;2023-08-24T19:39:57;27.00;75.20
1329;DHT22;658;48.820;9.354;2023-08-24T19:43:58;27.10;74.70
1329;DHT22;658;48.820;9.354;2023-08-24T19:48:01;27.20;74.10
1329;DHT22;658;48.820;9.354;2023-08-24T19:52:04;27.20;74.60
1329;DHT22;658;48.820;9.354;2023-08-24T19:56:07;27.30;74.30
1329;DHT22;658;48.820;9.354;2023-08-24T20:00:09;27.40;73.90
1329;DHT22;658;48.820;9.354;2023-08-24T20:04:13;27.40;72.90
1329;DHT22;658;48.820;9.354;2023-08-24T20:08:14;27.40;72.20
1329;DHT22;658;48.820;9.354;2023-08-24T20:12:19;27.40;75.10
1329;DHT22;658;48.820;9.354;2023-08-24T20:16:22;27.40;73.90
1329;DHT22;658;48.820;9.354;2023-08-24T20:20:26;27.40;73.30
1329;DHT22;658;48.820;9.354;2023-08-24T20:24:31;27.40;74.40
1329;DHT22;658;48.820;9.354;2023-08-24T20:28:34;27.40;73.20
1329;DHT22;658;48.820;9.354;2023-08-24T20:32:37;27.40;72.70
1329;DHT22;658;48.820;9.354;2023-08-24T20:36:38;27.40;72.40
1329;DHT22;658;48.820;9.354;2023-08-24T20:40:41;27.40;72.40
1329;DHT22;658;48.820;9.354;2023-08-24T20:44:45;27.40;72.20
1329;DHT22;658;48.820;9.354;2023-08-24T20:48:46;27.40;72.80
1329;DHT22;658;48.820;9.354;2023-08-24T20:52:46;27.40;72.40
1329;DHT22;658;48.820;9.354;2023-08-24T20:56:47;27.40;73.00
1329;DHT22;658;48.820;9.354;2023-08-24T21:00:47;27.40;73.80
1329;DHT22;658;48.820;9.354;2023-08-24T21:04:48;27.30;73.40
1329;DHT22;658;48.820;9.354;2023-08-24T21:08:51;26.80;75.00
1329;DHT22;658;48.820;9.354;2023-08-24T21:12:51;26.40;76.90
1329;DHT22;658;48.820;9.354;2023-08-24T21:16:52;26.20;77.40
1329;DHT22;658;48.820;9.354;2023-08-24T21:20:58;25.90;78.40
1329;DHT22;658;48.820;9.354;2023-08-24T21:24:59;25.70;79.20
1329;DHT22;658;48.820;9.354;2023-08-24T21:29:01;25.60;79.90
1329;DHT22;658;48.820;9.354;2023-08-24T21:33:02;25.50;80.70
1329;DHT22;658;48.820;9.354;2023-08-24T21:37:02;25.30;80.80
1329;DHT22;658;48.820;9.354;2023-08-24T21:41:03;25.10;81.80
1329;DHT22;658;48.820;9.354;2023-08-24T21:45:04;24.70;83.30
1329;DHT22;658;48.820;9.354;2023-08-24T21:49:05;24.50;85.10
1329;DHT22;658;48.820;9.354;2023-08-24T21:53:08;24.40;85.90
1329;DHT22;658;48.820;9.354;2023-08-24T21:57:09;24.40;86.40
1329;DHT22;658;48.820;9.354;2023-08-24T22:01:09;24.30;86.50
1329;DHT22;658;48.820;9.354;2023-08-24T22:05:11;24.10;87.30
1329;DHT22;658;48.820;9.354;2023-08-24T22:09:13;24.10;88.10
1329;DHT22;658;48.820;9.354;2023-08-24T22:13:14;24.20;87.80
1329;DHT22;658;48.820;9.354;2023-08-24T22:17:14;24.30;87.40
1329;DHT22;658;48.820;9.354;2023-08-24T22:21:15;24.40;86.90
1329;DHT22;658;48.820;9.354;2023-08-24T22:25:16;24.40;86.20
1329;DHT22;658;48.820;9.354;2023-08-24T22:29:16;24.40;86.00
1329;DHT22;658;48.820;9.354;2023-08-24T22:33:17;24.50;85.70
1329;DHT22;658;48.820;9.354;2023-08-24T22:37:17;24.50;85.20
1329;DHT22;658;48.820;9.354;2023-08-24T22:41:18;24.50;84.80
1329;DHT22;658;48.820;9.354;2023-08-24T22:45:36;24.50;84.20
1329;DHT22;658;48.820;9.354;2023-08-24T22:49:38;24.50;84.30
1329;DHT22;658;48.820;9.354;2023-08-24T22:53:38;24.60;84.50
1329;DHT22;658;48.820;9.354;2023-08-24T22:57:39;24.60;84.50
1329;DHT22;658;48.820;9.354;2023-08-24T23:01:40;24.60;84.30
1329;DHT22;658;48.820;9.354;2023-08-24T23:05:43;24.60;84.30
1329;DHT22;658;48.820;9.354;2023-08-24T23:09:44;24.50;84.30
1329;DHT22;658;48.820;9.354;2023-08-24T23:13:44;24.50;84.20
1329;DHT22;658;48.820;9.354;2023-08-24T23:17:45;24.60;84.40
1329;DHT22;658;48.820;9.354;2023-08-24T23:21:46;24.50;84.40
1329;DHT22;658;48.820;9.354;2023-08-24T23:25:49;24.50;84.40
1329;DHT22;658;48.820;9.354;2023-08-24T23:29:50;24.50;84.10
1329;DHT22;658;48.820;9.354;2023-08-24T23:33:50;24.50;84.00
1329;DHT22;658;48.820;9.354;2023-08-24T23:37:51;24.50;84.10
1329;DHT22;658;48.820;9.354;2023-08-24T23:41:51;24.50;84.00
1329;DHT22;658;48.820;9.354;2023-08-24T23:45:52;24.50;83.20
1329;DHT22;658;48.820;9.354;2023-08-24T23:49:53;24.60;82.90
1329;DHT22;658;48.820;9.354;2023-08-24T23:53:54;24.60;82.70
1329;DHT22;658;48.820;9.354;2023-08-24T23:57:55;24.60;82.40
